»·PEaware :: DCM205 KIDA-KBZN

DCM205 :: KIDA-KBZN

FLIGHT INFORMATION

Flight Status: Arrived
Operator:
DotCom
More flights by this operator :: More flights under this callsign
Pilot: Chris S. (2433)
Aircraft: DEHAVILLAND DASH 8 400
(DH8D)
More flights by this aircraft type
Origin: KIDA Idaho Falls Regl
United States
Destination: KBZN Gallatin
United States
More flights between these airports :: More routes between these airports
Route: IDA V21 DBS V343 WOMET
File this flight plan on PilotEdge
Remarks:
Altitude:
(Current/Filed)
21,000ft
Speed:
(Current/Filed)
350kts
Departed: 06-Jan-21 06:48 PM
Arrived: 06-Jan-21 07:22 PM
Distance/Time
Traveled:
141nm/0:34
Distance/Time
To Go:
Arrived

Flight Plot

Page will automatically refresh every two minutes.

Flight plan parsing failed; only flown route is shown


Map Options




Map Legend


Flown Route
Filed Route
Departure Airport
Arrival Airport
Navaid (VOR, NDB)
Fix

Horizontal Profiles

Position Reports

Time Latitude Longitude Heading Altitude Ground
Speed
06-Jan-21 18:08 43.515102 -112.068693 140 4747ft 0kts
06-Jan-21 18:09 43.515102 -112.068693 140 4747ft 0kts
06-Jan-21 18:10 43.515102 -112.068693 140 4747ft 0kts
06-Jan-21 18:11 43.515102 -112.068693 140 4747ft 0kts
06-Jan-21 18:12 43.515102 -112.068693 140 4747ft 0kts
06-Jan-21 18:13 43.515102 -112.068693 140 4747ft 0kts
06-Jan-21 18:14 43.515102 -112.068693 140 4747ft 0kts
06-Jan-21 18:15 43.515102 -112.068693 140 4747ft 0kts
06-Jan-21 18:16 43.515102 -112.068693 140 4747ft 0kts
06-Jan-21 18:17 43.515102 -112.068693 140 4747ft 0kts
06-Jan-21 18:18 43.515102 -112.068693 140 4747ft 0kts
06-Jan-21 18:19 43.515102 -112.068693 140 4747ft 0kts
06-Jan-21 18:20 43.515102 -112.068693 140 4747ft 0kts
06-Jan-21 18:21 43.515102 -112.068693 140 4747ft 0kts
06-Jan-21 18:22 43.515102 -112.068693 140 4747ft 0kts
06-Jan-21 18:23 43.515102 -112.068693 140 4747ft 0kts
06-Jan-21 18:24 43.515102 -112.068693 140 4747ft 0kts
06-Jan-21 18:25 43.515102 -112.068693 140 4747ft 0kts
06-Jan-21 18:26 43.515102 -112.068693 140 4747ft 0kts
06-Jan-21 18:27 43.515102 -112.068693 140 4747ft 0kts
06-Jan-21 18:28 43.515102 -112.068693 140 4747ft 0kts
06-Jan-21 18:29 43.515102 -112.068693 140 4747ft 0kts
06-Jan-21 18:30 43.515102 -112.068693 140 4747ft 0kts
06-Jan-21 18:31 43.515102 -112.068693 140 4747ft 0kts
06-Jan-21 18:32 43.515102 -112.068693 140 4747ft 0kts
06-Jan-21 18:33 43.515102 -112.068693 140 4747ft 0kts
06-Jan-21 18:34 43.515102 -112.068693 140 4747ft 0kts
06-Jan-21 18:35 43.515102 -112.068693 140 4747ft 0kts
06-Jan-21 18:36 43.515102 -112.068693 140 4747ft 0kts
06-Jan-21 18:37 43.515102 -112.068693 140 4747ft 0kts
06-Jan-21 18:38 43.515102 -112.068693 140 4747ft 0kts
06-Jan-21 18:39 43.515102 -112.068693 140 4747ft 0kts
06-Jan-21 18:40 43.515102 -112.068693 140 4747ft 0kts
06-Jan-21 18:41 43.515109 -112.068701 140 4747ft 0kts
06-Jan-21 18:42 43.515282 -112.069233 273 4747ft 5kts
06-Jan-21 18:43 43.512801 -112.072208 217 4747ft 16kts
06-Jan-21 18:44 43.508874 -112.076399 216 4747ft 10kts
06-Jan-21 18:45 43.504294 -112.081335 217 4747ft 27kts
06-Jan-21 18:46 43.503088 -112.084528 39 4747ft 16kts
06-Jan-21 18:47 43.526025 -112.059281 38 5536ft 153kts
06-Jan-21 18:48 43.566260 -112.024481 24 8054ft 169kts
06-Jan-21 18:49 43.615397 -111.989573 29 10053ft 223kts
06-Jan-21 18:51 43.678376 -111.970541 340 11899ft 245kts
06-Jan-21 18:52 43.740408 -112.004718 329 13817ft 257kts
06-Jan-21 18:53 43.808067 -112.044821 330 15265ft 268kts
06-Jan-21 18:54 43.877670 -112.085213 330 16603ft 274kts
06-Jan-21 18:55 43.949141 -112.127093 330 17783ft 280kts
06-Jan-21 18:56 44.021484 -112.169749 330 18861ft 285kts
06-Jan-21 18:57 44.098458 -112.198962 5 19809ft 305kts
06-Jan-21 18:58 44.178695 -112.155753 21 20672ft 312kts
06-Jan-21 18:59 44.259037 -112.106503 21 21217ft 324kts
06-Jan-21 19:00 44.344656 -112.054618 21 21235ft 345kts
06-Jan-21 19:01 44.434256 -112.000017 21 21233ft 358kts
06-Jan-21 19:02 44.526735 -111.943571 21 21212ft 366kts
06-Jan-21 19:03 44.620033 -111.886263 21 21218ft 368kts
06-Jan-21 19:04 44.714184 -111.828386 21 21213ft 370kts
06-Jan-21 19:05 44.808431 -111.770192 21 21208ft 371kts
06-Jan-21 19:06 44.902627 -111.711813 21 21214ft 371kts
06-Jan-21 19:07 44.997191 -111.653051 22 20860ft 372kts
06-Jan-21 19:07 45.075808 -111.603930 21 19432ft 372kts
06-Jan-21 19:08 45.170092 -111.544799 21 17711ft 371kts
06-Jan-21 19:10 45.275072 -111.478916 22 17138ft 336kts
06-Jan-21 19:11 45.359220 -111.425735 20 16104ft 338kts
06-Jan-21 19:11 45.431952 -111.379971 19 14460ft 339kts
06-Jan-21 19:12 45.515287 -111.327056 21 12446ft 314kts
06-Jan-21 19:13 45.591372 -111.279076 19 10442ft 287kts
06-Jan-21 19:14 45.664566 -111.288880 341 8451ft 258kts
06-Jan-21 19:15 45.723253 -111.316304 339 8195ft 201kts
06-Jan-21 19:16 45.777954 -111.342982 339 8108ft 203kts
06-Jan-21 19:17 45.830809 -111.326028 45 7054ft 202kts
06-Jan-21 19:18 45.843687 -111.257350 105 6033ft 166kts
06-Jan-21 19:19 45.821232 -111.211545 136 5404ft 131kts
06-Jan-21 19:20 45.794257 -111.175181 134 4718ft 134kts
06-Jan-21 19:21 45.779254 -111.155420 237 4478ft 10kts
06-Jan-21 19:22 45.778556 -111.159160 290 4478ft 6kts
06-Jan-21 19:23 45.778513 -111.160003 237 4478ft 0kts
06-Jan-21 19:24 45.778513 -111.160003 237 4478ft 0kts
06-Jan-21 19:25 45.778513 -111.160003 237 4478ft 0kts
06-Jan-21 19:26 45.778513 -111.160003 237 4478ft 0kts
06-Jan-21 19:27 45.778513 -111.160003 237 4478ft 0kts
06-Jan-21 19:28 45.778513 -111.160003 237 4478ft 0kts
06-Jan-21 19:29 45.778513 -111.160003 237 4478ft 0kts
06-Jan-21 19:30 45.778513 -111.160003 237 4478ft 0kts

Navigation Log

Ident Type
Flight plan parsing failed, navigation log unavailable